sensor_id;sensor_type;location;lat;lon;timestamp;P1;durP1;ratioP1;P2;durP2;ratioP2
13991;SDS011;7070;53.586;9.692;2023-03-13T00:01:48;0.50;;;0.50;;
13991;SDS011;7070;53.586;9.692;2023-03-13T00:04:16;0.50;;;0.50;;
13991;SDS011;7070;53.586;9.692;2023-03-13T00:06:43;0.60;;;0.60;;
13991;SDS011;7070;53.586;9.692;2023-03-13T00:09:12;0.60;;;0.60;;
13991;SDS011;7070;53.586;9.692;2023-03-13T00:11:41;0.57;;;0.57;;
13991;SDS011;7070;53.586;9.692;2023-03-13T00:14:08;0.50;;;0.50;;
13991;SDS011;7070;53.586;9.692;2023-03-13T00:16:35;0.50;;;0.50;;
13991;SDS011;7070;53.586;9.692;2023-03-13T00:19:03;0.60;;;0.60;;
13991;SDS011;7070;53.586;9.692;2023-03-13T00:21:35;0.60;;;0.60;;
13991;SDS011;7070;53.586;9.692;2023-03-13T00:24:05;0.60;;;0.60;;
13991;SDS011;7070;53.586;9.692;2023-03-13T00:26:34;0.57;;;0.57;;
13991;SDS011;7070;53.586;9.692;2023-03-13T00:29:01;0.60;;;0.60;;
13991;SDS011;7070;53.586;9.692;2023-03-13T00:31:28;0.50;;;0.50;;
13991;SDS011;7070;53.586;9.692;2023-03-13T00:33:57;0.60;;;0.60;;
13991;SDS011;7070;53.586;9.692;2023-03-13T00:36:26;0.50;;;0.50;;
13991;SDS011;7070;53.586;9.692;2023-03-13T00:38:55;0.60;;;0.60;;
13991;SDS011;7070;53.586;9.692;2023-03-13T00:41:24;0.60;;;0.60;;
13991;SDS011;7070;53.586;9.692;2023-03-13T00:43:52;0.50;;;0.50;;
13991;SDS011;7070;53.586;9.692;2023-03-13T00:46:20;0.60;;;0.60;;
13991;SDS011;7070;53.586;9.692;2023-03-13T00:48:49;0.50;;;0.50;;
13991;SDS011;7070;53.586;9.692;2023-03-13T00:51:17;0.60;;;0.60;;
13991;SDS011;7070;53.586;9.692;2023-03-13T00:53:45;0.60;;;0.60;;
13991;SDS011;7070;53.586;9.692;2023-03-13T00:56:14;0.50;;;0.50;;
13991;SDS011;7070;53.586;9.692;2023-03-13T00:58:42;0.50;;;0.50;;
13991;SDS011;7070;53.586;9.692;2023-03-13T01:01:11;0.50;;;0.50;;
13991;SDS011;7070;53.586;9.692;2023-03-13T01:03:41;0.57;;;0.57;;
13991;SDS011;7070;53.586;9.692;2023-03-13T01:06:09;0.60;;;0.60;;
13991;SDS011;7070;53.586;9.692;2023-03-13T01:08:39;0.60;;;0.60;;
13991;SDS011;7070;53.586;9.692;2023-03-13T01:11:07;0.60;;;0.60;;
13991;SDS011;7070;53.586;9.692;2023-03-13T01:13:37;0.50;;;0.50;;
13991;SDS011;7070;53.586;9.692;2023-03-13T01:16:06;0.60;;;0.60;;
13991;SDS011;7070;53.586;9.692;2023-03-13T01:18:35;0.50;;;0.50;;
13991;SDS011;7070;53.586;9.692;2023-03-13T01:21:05;0.50;;;0.50;;
13991;SDS011;7070;53.586;9.692;2023-03-13T01:23:32;0.50;;;0.50;;
13991;SDS011;7070;53.586;9.692;2023-03-13T01:25:59;0.60;;;0.60;;
13991;SDS011;7070;53.586;9.692;2023-03-13T01:28:26;0.50;;;0.50;;
13991;SDS011;7070;53.586;9.692;2023-03-13T01:30:54;0.60;;;0.60;;
13991;SDS011;7070;53.586;9.692;2023-03-13T01:33:21;0.50;;;0.50;;
13991;SDS011;7070;53.586;9.692;2023-03-13T01:35:48;0.50;;;0.50;;
13991;SDS011;7070;53.586;9.692;2023-03-13T01:38:15;0.50;;;0.50;;
13991;SDS011;7070;53.586;9.692;2023-03-13T01:40:43;0.50;;;0.50;;
13991;SDS011;7070;53.586;9.692;2023-03-13T01:43:12;0.60;;;0.60;;
13991;SDS011;7070;53.586;9.692;2023-03-13T01:45:52;0.50;;;0.50;;
13991;SDS011;7070;53.586;9.692;2023-03-13T01:48:32;0.50;;;0.50;;
13991;SDS011;7070;53.586;9.692;2023-03-13T01:51:02;0.50;;;0.50;;
13991;SDS011;7070;53.586;9.692;2023-03-13T01:53:32;0.60;;;0.60;;
13991;SDS011;7070;53.586;9.692;2023-03-13T01:56:03;0.50;;;0.50;;
13991;SDS011;7070;53.586;9.692;2023-03-13T01:58:33;0.60;;;0.60;;
13991;SDS011;7070;53.586;9.692;2023-03-13T02:01:04;0.50;;;0.50;;
13991;SDS011;7070;53.586;9.692;2023-03-13T02:03:31;0.60;;;0.60;;
13991;SDS011;7070;53.586;9.692;2023-03-13T02:06:00;0.50;;;0.50;;
13991;SDS011;7070;53.586;9.692;2023-03-13T02:08:30;0.50;;;0.50;;
13991;SDS011;7070;53.586;9.692;2023-03-13T02:11:03;0.60;;;0.60;;
13991;SDS011;7070;53.586;9.692;2023-03-13T02:13:38;0.50;;;0.50;;
13991;SDS011;7070;53.586;9.692;2023-03-13T02:16:07;0.60;;;0.60;;
13991;SDS011;7070;53.586;9.692;2023-03-13T02:18:35;0.53;;;0.53;;
13991;SDS011;7070;53.586;9.692;2023-03-13T02:21:05;0.60;;;0.60;;
13991;SDS011;7070;53.586;9.692;2023-03-13T02:23:38;0.50;;;0.50;;
13991;SDS011;7070;53.586;9.692;2023-03-13T02:26:15;0.50;;;0.50;;
13991;SDS011;7070;53.586;9.692;2023-03-13T02:28:41;0.50;;;0.50;;
13991;SDS011;7070;53.586;9.692;2023-03-13T02:31:08;0.70;;;0.70;;
13991;SDS011;7070;53.586;9.692;2023-03-13T02:33:37;0.70;;;0.70;;
13991;SDS011;7070;53.586;9.692;2023-03-13T02:36:06;0.53;;;0.53;;
13991;SDS011;7070;53.586;9.692;2023-03-13T02:38:36;0.43;;;0.43;;
13991;SDS011;7070;53.586;9.692;2023-03-13T02:41:05;0.60;;;0.60;;
13991;SDS011;7070;53.586;9.692;2023-03-13T02:43:36;0.53;;;0.53;;
13991;SDS011;7070;53.586;9.692;2023-03-13T02:46:06;0.60;;;0.60;;
13991;SDS011;7070;53.586;9.692;2023-03-13T02:48:36;0.60;;;0.60;;
13991;SDS011;7070;53.586;9.692;2023-03-13T02:51:05;0.60;;;0.60;;
13991;SDS011;7070;53.586;9.692;2023-03-13T02:53:39;0.50;;;0.50;;
13991;SDS011;7070;53.586;9.692;2023-03-13T02:56:07;0.60;;;0.60;;
13991;SDS011;7070;53.586;9.692;2023-03-13T02:58:39;0.60;;;0.60;;
13991;SDS011;7070;53.586;9.692;2023-03-13T03:01:07;0.50;;;0.50;;
13991;SDS011;7070;53.586;9.692;2023-03-13T03:03:34;0.60;;;0.60;;
13991;SDS011;7070;53.586;9.692;2023-03-13T03:06:01;0.60;;;0.60;;
13991;SDS011;7070;53.586;9.692;2023-03-13T03:08:30;0.60;;;0.60;;
13991;SDS011;7070;53.586;9.692;2023-03-13T03:10:57;0.50;;;0.50;;
13991;SDS011;7070;53.586;9.692;2023-03-13T03:13:24;0.60;;;0.60;;
13991;SDS011;7070;53.586;9.692;2023-03-13T03:15:53;0.50;;;0.50;;
13991;SDS011;7070;53.586;9.692;2023-03-13T03:18:19;0.60;;;0.60;;
13991;SDS011;7070;53.586;9.692;2023-03-13T03:20:46;0.60;;;0.60;;
13991;SDS011;7070;53.586;9.692;2023-03-13T03:23:13;0.50;;;0.50;;
13991;SDS011;7070;53.586;9.692;2023-03-13T03:25:40;0.60;;;0.60;;
13991;SDS011;7070;53.586;9.692;2023-03-13T03:28:07;0.50;;;0.50;;
13991;SDS011;7070;53.586;9.692;2023-03-13T03:30:34;0.50;;;0.50;;
13991;SDS011;7070;53.586;9.692;2023-03-13T03:33:03;0.60;;;0.60;;
13991;SDS011;7070;53.586;9.692;2023-03-13T03:35:30;0.60;;;0.60;;
13991;SDS011;7070;53.586;9.692;2023-03-13T03:37:58;0.60;;;0.60;;
13991;SDS011;7070;53.586;9.692;2023-03-13T03:40:25;0.60;;;0.60;;
13991;SDS011;7070;53.586;9.692;2023-03-13T03:42:52;0.67;;;0.67;;
13991;SDS011;7070;53.586;9.692;2023-03-13T03:45:19;0.60;;;0.60;;
13991;SDS011;7070;53.586;9.692;2023-03-13T03:47:45;0.50;;;0.50;;
13991;SDS011;7070;53.586;9.692;2023-03-13T03:50:14;0.50;;;0.50;;
13991;SDS011;7070;53.586;9.692;2023-03-13T03:52:41;0.50;;;0.50;;
13991;SDS011;7070;53.586;9.692;2023-03-13T03:55:08;0.50;;;0.50;;
13991;SDS011;7070;53.586;9.692;2023-03-13T03:57:35;0.50;;;0.50;;
13991;SDS011;7070;53.586;9.692;2023-03-13T04:00:02;0.60;;;0.60;;
13991;SDS011;7070;53.586;9.692;2023-03-13T04:02:31;0.50;;;0.50;;
13991;SDS011;7070;53.586;9.692;2023-03-13T04:04:58;0.50;;;0.50;;
13991;SDS011;7070;53.586;9.692;2023-03-13T04:07:27;0.60;;;0.60;;
13991;SDS011;7070;53.586;9.692;2023-03-13T04:09:53;0.60;;;0.60;;
13991;SDS011;7070;53.586;9.692;2023-03-13T04:12:20;0.60;;;0.60;;
13991;SDS011;7070;53.586;9.692;2023-03-13T04:14:47;0.60;;;0.60;;
13991;SDS011;7070;53.586;9.692;2023-03-13T04:17:14;0.63;;;0.63;;
13991;SDS011;7070;53.586;9.692;2023-03-13T04:19:41;0.60;;;0.60;;
13991;SDS011;7070;53.586;9.692;2023-03-13T04:22:08;0.60;;;0.60;;
13991;SDS011;7070;53.586;9.692;2023-03-13T04:24:36;0.50;;;0.50;;
13991;SDS011;7070;53.586;9.692;2023-03-13T04:27:03;0.60;;;0.60;;
13991;SDS011;7070;53.586;9.692;2023-03-13T04:29:31;0.60;;;0.60;;
13991;SDS011;7070;53.586;9.692;2023-03-13T04:31:59;0.50;;;0.50;;
13991;SDS011;7070;53.586;9.692;2023-03-13T04:34:25;0.50;;;0.50;;
13991;SDS011;7070;53.586;9.692;2023-03-13T04:36:52;0.60;;;0.60;;
13991;SDS011;7070;53.586;9.692;2023-03-13T04:39:19;0.60;;;0.60;;
13991;SDS011;7070;53.586;9.692;2023-03-13T04:41:50;0.50;;;0.50;;
13991;SDS011;7070;53.586;9.692;2023-03-13T04:44:17;0.60;;;0.60;;
13991;SDS011;7070;53.586;9.692;2023-03-13T04:46:44;0.60;;;0.60;;
13991;SDS011;7070;53.586;9.692;2023-03-13T04:49:12;0.60;;;0.60;;
13991;SDS011;7070;53.586;9.692;2023-03-13T04:51:39;0.50;;;0.50;;
13991;SDS011;7070;53.586;9.692;2023-03-13T04:54:06;0.60;;;0.60;;
13991;SDS011;7070;53.586;9.692;2023-03-13T04:56:33;0.50;;;0.50;;
13991;SDS011;7070;53.586;9.692;2023-03-13T04:59:02;0.60;;;0.60;;
13991;SDS011;7070;53.586;9.692;2023-03-13T05:01:29;0.50;;;0.50;;
13991;SDS011;7070;53.586;9.692;2023-03-13T05:03:56;0.50;;;0.50;;
13991;SDS011;7070;53.586;9.692;2023-03-13T05:06:23;0.60;;;0.60;;
13991;SDS011;7070;53.586;9.692;2023-03-13T05:08:50;0.50;;;0.50;;
13991;SDS011;7070;53.586;9.692;2023-03-13T05:11:17;0.60;;;0.60;;
13991;SDS011;7070;53.586;9.692;2023-03-13T05:13:43;0.60;;;0.60;;
13991;SDS011;7070;53.586;9.692;2023-03-13T05:16:12;0.50;;;0.50;;
13991;SDS011;7070;53.586;9.692;2023-03-13T05:18:38;0.60;;;0.60;;
13991;SDS011;7070;53.586;9.692;2023-03-13T05:21:05;0.57;;;0.57;;
13991;SDS011;7070;53.586;9.692;2023-03-13T05:23:33;0.50;;;0.50;;
13991;SDS011;7070;53.586;9.692;2023-03-13T05:26:00;0.50;;;0.50;;
13991;SDS011;7070;53.586;9.692;2023-03-13T05:28:27;0.50;;;0.50;;
13991;SDS011;7070;53.586;9.692;2023-03-13T05:30:54;0.43;;;0.43;;
13991;SDS011;7070;53.586;9.692;2023-03-13T05:33:22;0.60;;;0.60;;
13991;SDS011;7070;53.586;9.692;2023-03-13T05:35:49;0.60;;;0.60;;
13991;SDS011;7070;53.586;9.692;2023-03-13T05:38:16;0.50;;;0.50;;
13991;SDS011;7070;53.586;9.692;2023-03-13T05:40:43;0.50;;;0.50;;
13991;SDS011;7070;53.586;9.692;2023-03-13T05:43:10;0.50;;;0.50;;
13991;SDS011;7070;53.586;9.692;2023-03-13T05:45:37;0.60;;;0.60;;
13991;SDS011;7070;53.586;9.692;2023-03-13T05:48:04;0.60;;;0.60;;
13991;SDS011;7070;53.586;9.692;2023-03-13T05:50:33;0.60;;;0.60;;
13991;SDS011;7070;53.586;9.692;2023-03-13T05:53:00;0.53;;;0.53;;
13991;SDS011;7070;53.586;9.692;2023-03-13T05:55:27;0.53;;;0.53;;
13991;SDS011;7070;53.586;9.692;2023-03-13T05:57:54;0.60;;;0.60;;
13991;SDS011;7070;53.586;9.692;2023-03-13T06:00:21;0.60;;;0.60;;
13991;SDS011;7070;53.586;9.692;2023-03-13T06:02:48;0.60;;;0.60;;
13991;SDS011;7070;53.586;9.692;2023-03-13T06:05:15;0.60;;;0.60;;
13991;SDS011;7070;53.586;9.692;2023-03-13T06:07:43;0.53;;;0.53;;
13991;SDS011;7070;53.586;9.692;2023-03-13T06:10:11;0.50;;;0.50;;
13991;SDS011;7070;53.586;9.692;2023-03-13T06:12:38;0.60;;;0.60;;
13991;SDS011;7070;53.586;9.692;2023-03-13T06:15:05;0.60;;;0.60;;
13991;SDS011;7070;53.586;9.692;2023-03-13T06:17:33;0.50;;;0.50;;
13991;SDS011;7070;53.586;9.692;2023-03-13T06:20:01;0.57;;;0.57;;
13991;SDS011;7070;53.586;9.692;2023-03-13T06:22:30;0.60;;;0.60;;
13991;SDS011;7070;53.586;9.692;2023-03-13T06:24:58;0.50;;;0.50;;
13991;SDS011;7070;53.586;9.692;2023-03-13T06:27:25;0.70;;;0.70;;
13991;SDS011;7070;53.586;9.692;2023-03-13T06:29:52;0.50;;;0.50;;
13991;SDS011;7070;53.586;9.692;2023-03-13T06:32:18;0.60;;;0.60;;
13991;SDS011;7070;53.586;9.692;2023-03-13T06:34:45;0.50;;;0.50;;
13991;SDS011;7070;53.586;9.692;2023-03-13T06:37:12;0.60;;;0.60;;
13991;SDS011;7070;53.586;9.692;2023-03-13T06:39:39;0.50;;;0.50;;
13991;SDS011;7070;53.586;9.692;2023-03-13T06:42:07;0.60;;;0.60;;
13991;SDS011;7070;53.586;9.692;2023-03-13T06:44:34;0.40;;;0.40;;
13991;SDS011;7070;53.586;9.692;2023-03-13T06:47:01;0.50;;;0.50;;
13991;SDS011;7070;53.586;9.692;2023-03-13T06:49:28;0.57;;;0.57;;
13991;SDS011;7070;53.586;9.692;2023-03-13T06:51:56;0.60;;;0.60;;
13991;SDS011;7070;53.586;9.692;2023-03-13T06:54:23;0.60;;;0.60;;
13991;SDS011;7070;53.586;9.692;2023-03-13T06:56:50;0.60;;;0.60;;
13991;SDS011;7070;53.586;9.692;2023-03-13T06:59:19;0.50;;;0.50;;
13991;SDS011;7070;53.586;9.692;2023-03-13T07:01:46;0.57;;;0.57;;
13991;SDS011;7070;53.586;9.692;2023-03-13T07:04:13;0.50;;;0.50;;
13991;SDS011;7070;53.586;9.692;2023-03-13T07:06:40;0.60;;;0.60;;
13991;SDS011;7070;53.586;9.692;2023-03-13T07:09:07;0.60;;;0.60;;
13991;SDS011;7070;53.586;9.692;2023-03-13T07:11:35;0.50;;;0.50;;
13991;SDS011;7070;53.586;9.692;2023-03-13T07:14:02;0.50;;;0.50;;
13991;SDS011;7070;53.586;9.692;2023-03-13T07:16:30;0.70;;;0.70;;
13991;SDS011;7070;53.586;9.692;2023-03-13T07:18:57;0.50;;;0.50;;
13991;SDS011;7070;53.586;9.692;2023-03-13T07:21:23;0.50;;;0.50;;
13991;SDS011;7070;53.586;9.692;2023-03-13T07:23:51;0.50;;;0.50;;
13991;SDS011;7070;53.586;9.692;2023-03-13T07:26:18;0.50;;;0.50;;
13991;SDS011;7070;53.586;9.692;2023-03-13T07:28:45;0.60;;;0.60;;
13991;SDS011;7070;53.586;9.692;2023-03-13T07:31:12;0.50;;;0.50;;
13991;SDS011;7070;53.586;9.692;2023-03-13T07:33:42;0.50;;;0.50;;
13991;SDS011;7070;53.586;9.692;2023-03-13T07:36:10;0.50;;;0.50;;
13991;SDS011;7070;53.586;9.692;2023-03-13T07:38:38;0.50;;;0.50;;
13991;SDS011;7070;53.586;9.692;2023-03-13T07:41:08;0.47;;;0.47;;
13991;SDS011;7070;53.586;9.692;2023-03-13T07:43:37;0.50;;;0.50;;
13991;SDS011;7070;53.586;9.692;2023-03-13T07:46:04;0.50;;;0.50;;
13991;SDS011;7070;53.586;9.692;2023-03-13T07:48:33;0.50;;;0.50;;
13991;SDS011;7070;53.586;9.692;2023-03-13T07:51:03;0.50;;;0.50;;
13991;SDS011;7070;53.586;9.692;2023-03-13T07:53:31;0.60;;;0.60;;
13991;SDS011;7070;53.586;9.692;2023-03-13T07:55:59;0.60;;;0.60;;
13991;SDS011;7070;53.586;9.692;2023-03-13T07:58:28;0.50;;;0.50;;
13991;SDS011;7070;53.586;9.692;2023-03-13T08:00:55;0.50;;;0.50;;
13991;SDS011;7070;53.586;9.692;2023-03-13T08:03:22;0.50;;;0.50;;
13991;SDS011;7070;53.586;9.692;2023-03-13T08:05:57;0.50;;;0.50;;
13991;SDS011;7070;53.586;9.692;2023-03-13T08:08:25;0.50;;;0.50;;
13991;SDS011;7070;53.586;9.692;2023-03-13T08:10:58;0.50;;;0.50;;
13991;SDS011;7070;53.586;9.692;2023-03-13T08:13:25;0.50;;;0.50;;
13991;SDS011;7070;53.586;9.692;2023-03-13T08:15:52;0.50;;;0.50;;
13991;SDS011;7070;53.586;9.692;2023-03-13T08:18:27;0.50;;;0.50;;
13991;SDS011;7070;53.586;9.692;2023-03-13T08:20:54;0.50;;;0.50;;
13991;SDS011;7070;53.586;9.692;2023-03-13T08:23:20;0.40;;;0.40;;
13991;SDS011;7070;53.586;9.692;2023-03-13T08:25:49;0.60;;;0.60;;
13991;SDS011;7070;53.586;9.692;2023-03-13T08:28:16;0.50;;;0.50;;
13991;SDS011;7070;53.586;9.692;2023-03-13T08:30:42;0.50;;;0.50;;
13991;SDS011;7070;53.586;9.692;2023-03-13T08:33:09;0.50;;;0.50;;
13991;SDS011;7070;53.586;9.692;2023-03-13T08:35:36;0.60;;;0.60;;
13991;SDS011;7070;53.586;9.692;2023-03-13T08:38:03;0.50;;;0.50;;
13991;SDS011;7070;53.586;9.692;2023-03-13T08:40:31;0.50;;;0.50;;
13991;SDS011;7070;53.586;9.692;2023-03-13T08:42:59;0.50;;;0.50;;
13991;SDS011;7070;53.586;9.692;2023-03-13T08:45:26;0.50;;;0.50;;
13991;SDS011;7070;53.586;9.692;2023-03-13T08:47:52;0.50;;;0.50;;
13991;SDS011;7070;53.586;9.692;2023-03-13T08:50:19;0.50;;;0.50;;
13991;SDS011;7070;53.586;9.692;2023-03-13T08:52:46;0.50;;;0.50;;
13991;SDS011;7070;53.586;9.692;2023-03-13T08:55:13;0.50;;;0.50;;
13991;SDS011;7070;53.586;9.692;2023-03-13T08:57:41;0.50;;;0.50;;
13991;SDS011;7070;53.586;9.692;2023-03-13T09:00:10;0.50;;;0.50;;
13991;SDS011;7070;53.586;9.692;2023-03-13T09:02:39;0.50;;;0.50;;
13991;SDS011;7070;53.586;9.692;2023-03-13T09:05:06;0.43;;;0.43;;
13991;SDS011;7070;53.586;9.692;2023-03-13T09:07:33;0.50;;;0.50;;
13991;SDS011;7070;53.586;9.692;2023-03-13T09:10:00;0.50;;;0.50;;
13991;SDS011;7070;53.586;9.692;2023-03-13T09:12:27;0.47;;;0.47;;
13991;SDS011;7070;53.586;9.692;2023-03-13T09:14:55;0.50;;;0.50;;
13991;SDS011;7070;53.586;9.692;2023-03-13T09:17:23;0.47;;;0.47;;
13991;SDS011;7070;53.586;9.692;2023-03-13T09:19:51;0.50;;;0.50;;
13991;SDS011;7070;53.586;9.692;2023-03-13T09:22:17;0.50;;;0.50;;
13991;SDS011;7070;53.586;9.692;2023-03-13T09:24:44;0.50;;;0.50;;
13991;SDS011;7070;53.586;9.692;2023-03-13T09:27:11;0.50;;;0.50;;
13991;SDS011;7070;53.586;9.692;2023-03-13T09:29:38;0.40;;;0.40;;
13991;SDS011;7070;53.586;9.692;2023-03-13T09:32:06;0.40;;;0.40;;
13991;SDS011;7070;53.586;9.692;2023-03-13T09:34:36;0.40;;;0.40;;
13991;SDS011;7070;53.586;9.692;2023-03-13T09:37:03;0.50;;;0.50;;
13991;SDS011;7070;53.586;9.692;2023-03-13T09:39:30;0.50;;;0.50;;
13991;SDS011;7070;53.586;9.692;2023-03-13T09:41:59;0.50;;;0.50;;
13991;SDS011;7070;53.586;9.692;2023-03-13T09:44:35;0.50;;;0.50;;
13991;SDS011;7070;53.586;9.692;2023-03-13T09:47:06;0.40;;;0.40;;
13991;SDS011;7070;53.586;9.692;2023-03-13T09:49:39;0.40;;;0.40;;
13991;SDS011;7070;53.586;9.692;2023-03-13T09:52:11;0.40;;;0.40;;
13991;SDS011;7070;53.586;9.692;2023-03-13T09:54:42;0.43;;;0.43;;
13991;SDS011;7070;53.586;9.692;2023-03-13T09:57:14;0.50;;;0.50;;
13991;SDS011;7070;53.586;9.692;2023-03-13T09:59:47;0.50;;;0.50;;
13991;SDS011;7070;53.586;9.692;2023-03-13T10:02:24;0.50;;;0.50;;
13991;SDS011;7070;53.586;9.692;2023-03-13T10:04:56;0.50;;;0.50;;
13991;SDS011;7070;53.586;9.692;2023-03-13T10:07:33;0.40;;;0.40;;
13991;SDS011;7070;53.586;9.692;2023-03-13T10:10:01;0.50;;;0.50;;
13991;SDS011;7070;53.586;9.692;2023-03-13T10:12:30;0.50;;;0.50;;
13991;SDS011;7070;53.586;9.692;2023-03-13T10:18:09;0.40;;;0.40;;
13991;SDS011;7070;53.586;9.692;2023-03-13T10:20:42;0.40;;;0.40;;
13991;SDS011;7070;53.586;9.692;2023-03-13T10:23:13;0.50;;;0.50;;
13991;SDS011;7070;53.586;9.692;2023-03-13T10:25:44;0.43;;;0.43;;
13991;SDS011;7070;53.586;9.692;2023-03-13T10:28:12;0.50;;;0.50;;
13991;SDS011;7070;53.586;9.692;2023-03-13T10:30:42;0.40;;;0.40;;
13991;SDS011;7070;53.586;9.692;2023-03-13T10:33:19;0.40;;;0.40;;
13991;SDS011;7070;53.586;9.692;2023-03-13T10:36:00;0.30;;;0.30;;
13991;SDS011;7070;53.586;9.692;2023-03-13T10:38:29;0.37;;;0.37;;
13991;SDS011;7070;53.586;9.692;2023-03-13T10:40:59;0.40;;;0.40;;
13991;SDS011;7070;53.586;9.692;2023-03-13T10:43:29;0.40;;;0.40;;
13991;SDS011;7070;53.586;9.692;2023-03-13T10:45:56;0.40;;;0.40;;
13991;SDS011;7070;53.586;9.692;2023-03-13T10:48:25;0.40;;;0.40;;
13991;SDS011;7070;53.586;9.692;2023-03-13T10:50:55;0.40;;;0.40;;
13991;SDS011;7070;53.586;9.692;2023-03-13T10:53:25;0.40;;;0.40;;
13991;SDS011;7070;53.586;9.692;2023-03-13T10:55:59;0.40;;;0.40;;
13991;SDS011;7070;53.586;9.692;2023-03-13T10:58:34;0.40;;;0.40;;
13991;SDS011;7070;53.586;9.692;2023-03-13T11:01:13;0.30;;;0.30;;
13991;SDS011;7070;53.586;9.692;2023-03-13T11:03:42;0.50;;;0.50;;
13991;SDS011;7070;53.586;9.692;2023-03-13T11:06:21;0.50;;;0.50;;
13991;SDS011;7070;53.586;9.692;2023-03-13T11:08:58;0.40;;;0.40;;
13991;SDS011;7070;53.586;9.692;2023-03-13T11:11:44;0.40;;;0.40;;
13991;SDS011;7070;53.586;9.692;2023-03-13T11:14:14;0.50;;;0.50;;
13991;SDS011;7070;53.586;9.692;2023-03-13T11:16:45;0.47;;;0.47;;
13991;SDS011;7070;53.586;9.692;2023-03-13T11:25:21;0.40;;;0.40;;
13991;SDS011;7070;53.586;9.692;2023-03-13T11:28:03;0.50;;;0.50;;
13991;SDS011;7070;53.586;9.692;2023-03-13T11:30:50;0.40;;;0.40;;
13991;SDS011;7070;53.586;9.692;2023-03-13T11:33:33;0.40;;;0.40;;
13991;SDS011;7070;53.586;9.692;2023-03-13T11:36:14;0.40;;;0.40;;
13991;SDS011;7070;53.586;9.692;2023-03-13T11:38:47;0.40;;;0.40;;
13991;SDS011;7070;53.586;9.692;2023-03-13T11:41:21;0.40;;;0.40;;
13991;SDS011;7070;53.586;9.692;2023-03-13T11:44:00;0.40;;;0.40;;
13991;SDS011;7070;53.586;9.692;2023-03-13T11:46:41;0.40;;;0.40;;
13991;SDS011;7070;53.586;9.692;2023-03-13T11:49:16;0.40;;;0.40;;
13991;SDS011;7070;53.586;9.692;2023-03-13T11:51:59;0.40;;;0.40;;
13991;SDS011;7070;53.586;9.692;2023-03-13T11:54:40;0.30;;;0.30;;
13991;SDS011;7070;53.586;9.692;2023-03-13T11:57:23;0.50;;;0.50;;
13991;SDS011;7070;53.586;9.692;2023-03-13T11:59:58;0.33;;;0.33;;
13991;SDS011;7070;53.586;9.692;2023-03-13T12:02:40;0.37;;;0.37;;
13991;SDS011;7070;53.586;9.692;2023-03-13T12:05:13;0.40;;;0.40;;
13991;SDS011;7070;53.586;9.692;2023-03-13T12:07:44;0.40;;;0.40;;
13991;SDS011;7070;53.586;9.692;2023-03-13T12:10:15;0.30;;;0.30;;
13991;SDS011;7070;53.586;9.692;2023-03-13T12:12:48;0.40;;;0.40;;
13991;SDS011;7070;53.586;9.692;2023-03-13T12:15:20;0.40;;;0.40;;
13991;SDS011;7070;53.586;9.692;2023-03-13T12:17:50;0.30;;;0.30;;
13991;SDS011;7070;53.586;9.692;2023-03-13T12:20:23;0.30;;;0.30;;
13991;SDS011;7070;53.586;9.692;2023-03-13T12:22:54;0.40;;;0.40;;
13991;SDS011;7070;53.586;9.692;2023-03-13T12:25:26;0.40;;;0.40;;
13991;SDS011;7070;53.586;9.692;2023-03-13T12:28:00;0.40;;;0.40;;
13991;SDS011;7070;53.586;9.692;2023-03-13T12:30:38;0.40;;;0.40;;
13991;SDS011;7070;53.586;9.692;2023-03-13T12:33:12;0.40;;;0.40;;
13991;SDS011;7070;53.586;9.692;2023-03-13T12:35:45;0.40;;;0.40;;
13991;SDS011;7070;53.586;9.692;2023-03-13T12:38:19;0.40;;;0.40;;
13991;SDS011;7070;53.586;9.692;2023-03-13T12:40:51;0.40;;;0.40;;
13991;SDS011;7070;53.586;9.692;2023-03-13T12:43:29;0.30;;;0.30;;
13991;SDS011;7070;53.586;9.692;2023-03-13T12:46:09;0.40;;;0.40;;
13991;SDS011;7070;53.586;9.692;2023-03-13T12:48:51;0.40;;;0.40;;
13991;SDS011;7070;53.586;9.692;2023-03-13T12:51:33;0.33;;;0.33;;
13991;SDS011;7070;53.586;9.692;2023-03-13T12:54:16;0.40;;;0.40;;
13991;SDS011;7070;53.586;9.692;2023-03-13T12:57:00;0.40;;;0.40;;
13991;SDS011;7070;53.586;9.692;2023-03-13T12:59:48;0.30;;;0.30;;
13991;SDS011;7070;53.586;9.692;2023-03-13T13:02:20;0.40;;;0.40;;
13991;SDS011;7070;53.586;9.692;2023-03-13T13:04:49;0.47;;;0.47;;
13991;SDS011;7070;53.586;9.692;2023-03-13T13:07:21;0.37;;;0.37;;
13991;SDS011;7070;53.586;9.692;2023-03-13T13:10:00;0.37;;;0.37;;
13991;SDS011;7070;53.586;9.692;2023-03-13T13:12:30;0.40;;;0.40;;
13991;SDS011;7070;53.586;9.692;2023-03-13T13:15:04;0.40;;;0.40;;
13991;SDS011;7070;53.586;9.692;2023-03-13T13:17:46;0.40;;;0.40;;
13991;SDS011;7070;53.586;9.692;2023-03-13T13:20:29;0.30;;;0.30;;
13991;SDS011;7070;53.586;9.692;2023-03-13T13:32:32;0.43;;;0.43;;
13991;SDS011;7070;53.586;9.692;2023-03-13T13:35:05;0.50;;;0.50;;
13991;SDS011;7070;53.586;9.692;2023-03-13T13:37:49;0.40;;;0.40;;
13991;SDS011;7070;53.586;9.692;2023-03-13T13:40:18;0.40;;;0.40;;
13991;SDS011;7070;53.586;9.692;2023-03-13T13:42:52;0.40;;;0.40;;
13991;SDS011;7070;53.586;9.692;2023-03-13T13:45:24;0.30;;;0.30;;
13991;SDS011;7070;53.586;9.692;2023-03-13T13:53:51;0.40;;;0.40;;
13991;SDS011;7070;53.586;9.692;2023-03-13T14:02:14;0.40;;;0.40;;
13991;SDS011;7070;53.586;9.692;2023-03-13T14:04:46;0.40;;;0.40;;
13991;SDS011;7070;53.586;9.692;2023-03-13T14:07:22;0.40;;;0.40;;
13991;SDS011;7070;53.586;9.692;2023-03-13T14:09:59;0.20;;;0.20;;
13991;SDS011;7070;53.586;9.692;2023-03-13T14:12:30;0.30;;;0.30;;
13991;SDS011;7070;53.586;9.692;2023-03-13T14:17:50;0.50;;;0.50;;
13991;SDS011;7070;53.586;9.692;2023-03-13T14:20:23;0.40;;;0.40;;
13991;SDS011;7070;53.586;9.692;2023-03-13T14:22:57;0.40;;;0.40;;
13991;SDS011;7070;53.586;9.692;2023-03-13T14:25:26;0.30;;;0.30;;
13991;SDS011;7070;53.586;9.692;2023-03-13T14:27:54;0.30;;;0.30;;
13991;SDS011;7070;53.586;9.692;2023-03-13T14:30:21;0.30;;;0.30;;
13991;SDS011;7070;53.586;9.692;2023-03-13T14:32:50;0.40;;;0.40;;
13991;SDS011;7070;53.586;9.692;2023-03-13T14:35:18;0.30;;;0.30;;
13991;SDS011;7070;53.586;9.692;2023-03-13T14:37:48;0.40;;;0.40;;
13991;SDS011;7070;53.586;9.692;2023-03-13T14:40:22;0.40;;;0.40;;
13991;SDS011;7070;53.586;9.692;2023-03-13T14:42:51;0.30;;;0.30;;
13991;SDS011;7070;53.586;9.692;2023-03-13T14:45:22;0.30;;;0.30;;
13991;SDS011;7070;53.586;9.692;2023-03-13T14:47:51;0.30;;;0.30;;
13991;SDS011;7070;53.586;9.692;2023-03-13T14:50:20;0.30;;;0.30;;
13991;SDS011;7070;53.586;9.692;2023-03-13T14:52:49;0.40;;;0.40;;
13991;SDS011;7070;53.586;9.692;2023-03-13T14:55:31;0.30;;;0.30;;
13991;SDS011;7070;53.586;9.692;2023-03-13T14:58:00;0.40;;;0.40;;
13991;SDS011;7070;53.586;9.692;2023-03-13T15:00:31;0.30;;;0.30;;
13991;SDS011;7070;53.586;9.692;2023-03-13T15:08:48;0.30;;;0.30;;
13991;SDS011;7070;53.586;9.692;2023-03-13T15:11:35;0.40;;;0.40;;
13991;SDS011;7070;53.586;9.692;2023-03-13T15:17:02;0.30;;;0.30;;
13991;SDS011;7070;53.586;9.692;2023-03-13T15:19:35;0.40;;;0.40;;
13991;SDS011;7070;53.586;9.692;2023-03-13T15:22:02;0.30;;;0.30;;
13991;SDS011;7070;53.586;9.692;2023-03-13T15:24:29;0.30;;;0.30;;
13991;SDS011;7070;53.586;9.692;2023-03-13T15:26:57;0.30;;;0.30;;
13991;SDS011;7070;53.586;9.692;2023-03-13T15:29:24;0.40;;;0.40;;
13991;SDS011;7070;53.586;9.692;2023-03-13T15:31:51;0.40;;;0.40;;
13991;SDS011;7070;53.586;9.692;2023-03-13T15:34:18;0.30;;;0.30;;
13991;SDS011;7070;53.586;9.692;2023-03-13T15:36:49;0.40;;;0.40;;
13991;SDS011;7070;53.586;9.692;2023-03-13T15:39:16;0.30;;;0.30;;
13991;SDS011;7070;53.586;9.692;2023-03-13T15:41:45;0.30;;;0.30;;
13991;SDS011;7070;53.586;9.692;2023-03-13T15:44:17;0.40;;;0.40;;
13991;SDS011;7070;53.586;9.692;2023-03-13T15:46:44;0.40;;;0.40;;
13991;SDS011;7070;53.586;9.692;2023-03-13T15:49:12;0.40;;;0.40;;
13991;SDS011;7070;53.586;9.692;2023-03-13T15:51:39;0.33;;;0.33;;
13991;SDS011;7070;53.586;9.692;2023-03-13T15:54:06;0.40;;;0.40;;
13991;SDS011;7070;53.586;9.692;2023-03-13T15:56:33;0.40;;;0.40;;
13991;SDS011;7070;53.586;9.692;2023-03-13T15:59:08;0.40;;;0.40;;